createdAt,value
2018-01-22T00:01:25.007Z,12.75
2018-01-22T00:03:52.029Z,11.95
2018-01-22T00:06:19.132Z,13.15
2018-01-22T00:08:45.379Z,13.73
2018-01-22T00:11:11.591Z,13.68
2018-01-22T00:13:38.786Z,11.20
2018-01-22T00:16:05.010Z,14.40
2018-01-22T00:18:31.301Z,14.70
2018-01-22T00:20:57.518Z,12.32
2018-01-22T00:23:23.753Z,14.57
2018-01-22T00:25:50.261Z,12.60
2018-01-22T00:28:17.253Z,11.57
2018-01-22T00:30:44.029Z,15.40
2018-01-22T00:33:10.826Z,13.88
2018-01-22T00:35:37.054Z,9.45
2018-01-22T00:38:03.286Z,14.05
2018-01-22T00:40:29.779Z,10.02
2018-01-22T00:42:57.467Z,10.18
2018-01-22T00:45:24.333Z,15.95
2018-01-22T00:47:50.924Z,10.80
2018-01-22T00:50:17.899Z,12.32
2018-01-22T00:52:44.122Z,12.30
2018-01-22T00:55:11.672Z,20.02
2018-01-22T01:04:19.412Z,20.88
2018-01-22T01:06:46.519Z,18.75
2018-01-22T01:09:13.109Z,19.17
2018-01-22T01:11:40.805Z,16.85
2018-01-22T01:14:08.815Z,21.10
2018-01-22T01:16:35.850Z,20.55
2018-01-22T01:19:03.495Z,17.70
2018-01-22T01:21:30.261Z,16.65
2018-01-22T01:23:57.300Z,16.98
2018-01-22T01:26:24.246Z,19.42
2018-01-22T01:28:51.217Z,14.90
2018-01-22T01:31:17.449Z,16.35
2018-01-22T01:33:43.672Z,16.80
2018-01-22T01:36:10.960Z,15.55
2018-01-22T01:38:37.960Z,19.52
2018-01-22T01:41:05.901Z,19.55
2018-01-22T01:43:32.467Z,18.17
2018-01-22T01:45:59.874Z,16.25
2018-01-22T01:48:27.803Z,13.95
2018-01-22T01:50:54.042Z,14.32
2018-01-22T01:53:20.242Z,12.00
2018-01-22T01:55:47.307Z,10.60
2018-01-22T01:58:13.519Z,11.98
2018-01-22T02:00:40.630Z,10.85
2018-01-22T02:03:06.847Z,13.62
2018-01-22T02:05:33.171Z,10.95
2018-01-22T02:07:59.644Z,10.25
2018-01-22T02:10:26.618Z,12.43
2018-01-22T02:12:52.924Z,10.32
2018-01-22T02:15:20.267Z,13.32
2018-01-22T02:17:48.085Z,11.75
2018-01-22T02:20:15.284Z,10.70
2018-01-22T02:22:42.248Z,10.52
2018-01-22T02:25:09.336Z,14.05
2018-01-22T02:27:35.569Z,10.73
2018-01-22T02:30:02.581Z,11.05
2018-01-22T02:32:28.809Z,10.73
2018-01-22T02:34:55.142Z,9.48
2018-01-22T02:37:21.783Z,10.38
2018-01-22T02:39:48.087Z,7.53
2018-01-22T02:42:15.077Z,12.90
2018-01-22T02:44:41.298Z,12.57
2018-01-22T02:47:08.318Z,10.05
2018-01-22T02:49:35.072Z,10.90
2018-01-22T02:52:01.859Z,11.10
2018-01-22T02:54:28.127Z,7.85
2018-01-22T02:56:54.517Z,10.80
2018-01-22T02:59:21.519Z,8.93
2018-01-22T03:01:47.714Z,12.23
2018-01-22T03:04:14.737Z,9.90
2018-01-22T03:06:40.954Z,11.80
2018-01-22T03:09:07.199Z,8.48
2018-01-22T03:11:33.409Z,11.88
2018-01-22T03:14:00.589Z,12.23
2018-01-22T03:16:27.781Z,9.93
2018-01-22T03:18:54.841Z,12.98
2018-01-22T03:21:21.835Z,11.80
2018-01-22T03:23:48.530Z,13.15
2018-01-22T03:26:14.750Z,12.35
2018-01-22T03:28:41.687Z,8.25
2018-01-22T03:31:08.425Z,10.55
2018-01-22T03:33:35.270Z,11.77
2018-01-22T03:36:02.074Z,8.73
2018-01-22T03:38:29.552Z,9.50
2018-01-22T03:40:56.444Z,11.95
2018-01-22T03:43:23.188Z,12.37
2018-01-22T03:45:49.587Z,11.95
2018-01-22T03:48:16.902Z,9.88
2018-01-22T03:50:51.402Z,10.77
2018-01-22T03:53:18.465Z,10.23
2018-01-22T03:55:45.556Z,10.60
2018-01-22T03:58:11.779Z,9.07
2018-01-22T04:00:38.630Z,11.63
2018-01-22T04:03:05.362Z,9.30
2018-01-22T04:05:31.612Z,11.30
2018-01-22T04:07:57.844Z,12.90
2018-01-22T04:10:24.443Z,11.88
2018-01-22T04:12:51.612Z,8.48
2018-01-22T04:15:17.875Z,9.48
2018-01-22T04:17:44.310Z,12.23
2018-01-22T04:20:11.315Z,8.95
2018-01-22T04:22:38.504Z,13.60
2018-01-22T04:25:04.727Z,10.18
2018-01-22T04:27:31.589Z,9.00
2018-01-22T04:29:58.310Z,7.65
2018-01-22T04:32:25.062Z,9.70
2018-01-22T04:34:52.842Z,11.20
2018-01-22T04:37:19.834Z,9.45
2018-01-22T04:39:46.025Z,10.77
2018-01-22T04:42:12.254Z,8.07
2018-01-22T04:44:38.497Z,8.90
2018-01-22T04:47:04.733Z,10.13
2018-01-22T04:49:31.080Z,7.78
2018-01-22T04:51:58.484Z,8.70
2018-01-22T04:54:24.754Z,8.00
2018-01-22T04:56:51.502Z,7.57
2018-01-22T04:59:17.737Z,8.40
2018-01-22T05:01:43.943Z,7.28
2018-01-22T05:04:10.194Z,7.55
2018-01-22T05:06:36.763Z,7.45
2018-01-22T05:09:04.092Z,6.93
2018-01-22T05:11:31.058Z,9.70
2018-01-22T05:13:57.730Z,8.23
2018-01-22T05:16:25.778Z,9.82
2018-01-22T05:18:53.320Z,9.68
2018-01-22T05:21:20.086Z,8.10
2018-01-22T05:23:46.526Z,10.98
2018-01-22T05:26:14.194Z,8.18
2018-01-22T05:28:40.448Z,6.97
2018-01-22T05:31:06.854Z,7.65
2018-01-22T05:33:33.088Z,8.52
2018-01-22T05:35:59.311Z,7.75
2018-01-22T05:38:26.177Z,9.70
2018-01-22T05:40:52.411Z,9.88
2018-01-22T05:43:19.155Z,9.55
2018-01-22T05:45:46.855Z,10.30
2018-01-22T05:48:15.063Z,9.82
2018-01-22T05:50:41.944Z,10.25
2018-01-22T05:53:08.152Z,13.93
2018-01-22T05:55:34.834Z,11.93
2018-01-22T05:58:02.435Z,10.60
2018-01-22T06:00:29.922Z,13.50
2018-01-22T06:02:56.767Z,11.50
2018-01-22T06:05:23.946Z,11.32
2018-01-22T06:17:36.320Z,11.70
2018-01-22T06:20:04.199Z,13.48
2018-01-22T06:22:32.150Z,17.87
2018-01-22T06:24:58.398Z,12.68
2018-01-22T06:27:24.688Z,15.32
2018-01-22T06:29:51.342Z,13.35
2018-01-22T06:32:18.470Z,14.77
2018-01-22T06:34:44.701Z,14.20
2018-01-22T06:37:11.521Z,16.80
2018-01-22T06:39:37.857Z,12.85
2018-01-22T06:42:04.184Z,12.57
2018-01-22T06:44:30.897Z,14.80
2018-01-22T06:46:57.109Z,17.40
2018-01-22T06:49:24.398Z,13.02
2018-01-22T06:51:50.617Z,16.62
2018-01-22T06:54:17.850Z,14.87
2018-01-22T06:56:44.355Z,15.30
2018-01-22T06:59:11.331Z,18.05
2018-01-22T07:01:38.307Z,16.80
2018-01-22T07:04:04.597Z,20.02
2018-01-22T07:06:31.384Z,18.60
2018-01-22T07:08:57.944Z,16.27
2018-01-22T07:11:25.511Z,14.77
2018-01-22T07:13:53.093Z,19.98
2018-01-22T07:16:19.733Z,19.25
2018-01-22T07:18:46.519Z,17.62
2018-01-22T07:21:13.383Z,18.42
2018-01-22T07:23:40.363Z,17.05
2018-01-22T07:26:06.713Z,20.88
2018-01-22T07:28:32.953Z,18.70
2018-01-22T07:31:00.046Z,15.30
2018-01-22T07:33:28.221Z,17.75
2018-01-22T07:35:55.408Z,19.45
2018-01-22T07:38:23.077Z,21.85
2018-01-22T07:40:49.727Z,28.10
2018-01-22T07:43:16.725Z,22.50
2018-01-22T07:45:44.259Z,19.65
2018-01-22T07:48:11.232Z,23.08
2018-01-22T07:50:39.216Z,21.65
2018-01-22T07:53:06.606Z,19.23
2018-01-22T07:55:34.085Z,19.12
2018-01-22T07:58:01.411Z,19.40
2018-01-22T08:00:28.974Z,19.42
2018-01-22T08:02:55.771Z,19.27
2018-01-22T08:05:21.987Z,17.85
2018-01-22T08:07:48.989Z,19.95
2018-01-22T08:10:15.501Z,18.10
2018-01-22T08:12:41.748Z,20.77
2018-01-22T08:15:07.980Z,18.73
2018-01-22T08:17:34.769Z,17.02
2018-01-22T08:20:01.538Z,19.65
2018-01-22T08:22:28.014Z,24.17
2018-01-22T08:24:54.804Z,20.23
2018-01-22T08:27:22.994Z,19.77
2018-01-22T08:29:49.224Z,17.17
2018-01-22T08:32:16.141Z,18.15
2018-01-22T08:34:43.166Z,18.52
2018-01-22T08:37:10.238Z,19.90
2018-01-22T08:39:37.350Z,16.90
2018-01-22T08:42:04.374Z,18.60
2018-01-22T08:44:30.588Z,17.15
2018-01-22T08:46:57.239Z,17.80
2018-01-22T08:49:24.250Z,16.55
2018-01-22T08:51:50.477Z,20.83
2018-01-22T08:54:17.454Z,18.27
2018-01-22T08:56:43.698Z,17.73
2018-01-22T08:59:10.941Z,18.67
2018-01-22T09:01:37.270Z,20.33
2018-01-22T09:04:03.946Z,16.58
2018-01-22T09:06:31.214Z,17.20
2018-01-22T09:08:57.459Z,17.85
2018-01-22T09:11:24.386Z,19.52
2018-01-22T09:13:51.614Z,15.45
2018-01-22T09:16:17.989Z,17.30
2018-01-22T09:18:44.245Z,14.75
2018-01-22T09:21:10.473Z,18.17
2018-01-22T09:23:37.008Z,18.85
2018-01-22T09:26:04.051Z,17.55
2018-01-22T09:28:30.310Z,18.70
2018-01-22T09:30:57.512Z,17.83
2018-01-22T09:33:23.864Z,15.85
2018-01-22T09:35:50.165Z,17.30
2018-01-22T09:38:16.695Z,21.33
2018-01-22T09:40:43.595Z,18.35
2018-01-22T09:43:10.862Z,19.77
2018-01-22T09:45:38.019Z,18.98
2018-01-22T09:48:04.314Z,15.77
2018-01-22T09:50:30.789Z,19.17
2018-01-22T09:52:57.694Z,18.20
2018-01-22T09:55:23.960Z,17.25
2018-01-22T09:57:51.172Z,21.02
2018-01-22T10:00:17.616Z,16.48
2018-01-22T10:02:45.273Z,19.35
2018-01-22T10:05:11.497Z,16.87
2018-01-22T10:07:38.478Z,20.12
2018-01-22T10:10:05.750Z,18.92
2018-01-22T10:12:33.146Z,15.80
2018-01-22T10:15:00.307Z,18.00
2018-01-22T10:17:28.245Z,16.27
2018-01-22T10:19:55.948Z,14.27
2018-01-22T10:22:23.892Z,16.27
2018-01-22T10:24:50.867Z,16.12
2018-01-22T10:27:17.879Z,15.85
2018-01-22T10:29:45.430Z,15.43
2018-01-22T10:32:11.669Z,15.50
2018-01-22T10:34:38.207Z,16.48
2018-01-22T10:37:04.727Z,11.35
2018-01-22T10:39:32.803Z,15.18
2018-01-22T10:42:00.461Z,10.80
2018-01-22T10:44:26.735Z,11.12
2018-01-22T10:46:54.410Z,13.82
2018-01-22T10:49:21.484Z,14.27
2018-01-22T10:51:47.733Z,9.55
2018-01-22T10:54:13.970Z,9.32
2018-01-22T10:56:41.058Z,11.75
2018-01-22T10:59:07.292Z,8.85
2018-01-22T11:01:33.617Z,10.90
2018-01-22T11:04:00.471Z,7.60
2018-01-22T11:06:26.746Z,8.07
2018-01-22T11:08:53.030Z,11.20
2018-01-22T11:11:19.322Z,9.18
2018-01-22T11:13:46.820Z,7.25
2018-01-22T11:16:14.423Z,8.25
2018-01-22T11:18:41.254Z,7.80
2018-01-22T11:21:07.496Z,9.75
2018-01-22T11:23:34.616Z,8.88
2018-01-22T11:26:01.051Z,11.90
2018-01-22T11:28:27.813Z,8.25
2018-01-22T11:30:54.376Z,9.82
2018-01-22T11:33:21.525Z,9.70
2018-01-22T11:35:48.552Z,8.02
2018-01-22T11:38:15.885Z,5.90
2018-01-22T11:40:42.991Z,5.62
2018-01-22T11:43:09.191Z,6.55
2018-01-22T11:45:36.150Z,7.85
2018-01-22T11:48:03.414Z,6.90
2018-01-22T11:50:31.202Z,6.85
2018-01-22T11:52:57.547Z,6.12
2018-01-22T11:55:23.827Z,4.82
2018-01-22T11:57:50.145Z,6.28
2018-01-22T12:00:17.384Z,6.32
2018-01-22T12:02:44.445Z,7.05
2018-01-22T12:05:12.040Z,4.25
2018-01-22T12:07:38.892Z,4.60
2018-01-22T12:10:05.942Z,5.18
2018-01-22T12:12:32.294Z,5.32
2018-01-22T12:14:59.147Z,4.30
2018-01-22T12:17:27.604Z,4.97
2018-01-22T12:19:53.860Z,5.82
2018-01-22T12:22:20.101Z,6.18
2018-01-22T12:24:47.073Z,4.43
2018-01-22T12:27:13.311Z,8.40
2018-01-22T12:29:46.479Z,5.18
2018-01-22T12:32:13.222Z,8.50
2018-01-22T12:34:39.478Z,10.55
2018-01-22T12:37:06.451Z,5.57
2018-01-22T12:39:33.483Z,6.37
2018-01-22T12:44:36.005Z,7.57
2018-01-22T12:47:02.976Z,7.65
2018-01-22T12:49:29.281Z,6.60
2018-01-22T12:51:57.422Z,8.23
2018-01-22T12:54:23.680Z,9.00
2018-01-22T12:56:51.597Z,7.93
2018-01-22T12:59:18.507Z,10.88
2018-01-22T13:01:46.482Z,9.50
2018-01-22T13:04:12.760Z,9.15
2018-01-22T13:06:39.554Z,9.13
2018-01-22T13:09:07.621Z,8.25
2018-01-22T13:11:34.552Z,7.70
2018-01-22T13:14:02.216Z,10.68
2018-01-22T13:16:29.218Z,11.77
2018-01-22T13:18:56.475Z,10.73
2018-01-22T13:21:23.106Z,12.02
2018-01-22T13:23:50.859Z,6.68
2018-01-22T13:26:17.286Z,9.93
2018-01-22T13:28:43.895Z,10.30
2018-01-22T13:31:11.850Z,8.90
2018-01-22T13:33:38.534Z,8.70
2018-01-22T13:36:04.791Z,7.07
2018-01-22T13:38:31.194Z,6.90
2018-01-22T13:41:04.002Z,11.27
2018-01-22T13:43:31.332Z,10.95
2018-01-22T13:45:57.609Z,11.38
2018-01-22T13:48:25.150Z,14.90
2018-01-22T13:50:51.992Z,12.85
2018-01-22T13:53:18.252Z,15.05
2018-01-22T13:55:46.403Z,14.18
2018-01-22T13:58:12.662Z,9.50
2018-01-22T14:00:38.901Z,10.90
2018-01-22T14:03:06.152Z,8.75
2018-01-22T14:05:33.687Z,12.23
2018-01-22T14:08:02.042Z,11.27
2018-01-22T14:10:28.294Z,10.15
2018-01-22T14:12:55.236Z,8.15
2018-01-22T14:15:22.938Z,8.25
2018-01-22T14:17:49.680Z,8.75
2018-01-22T14:20:16.476Z,12.55
2018-01-22T14:22:44.102Z,11.68
2018-01-22T14:25:11.432Z,7.80
2018-01-22T14:27:37.782Z,8.63
2018-01-22T14:30:04.043Z,9.82
2018-01-22T14:32:31.220Z,9.98
2018-01-22T14:34:58.090Z,7.07
2018-01-22T14:37:25.086Z,8.00
2018-01-22T14:39:52.681Z,11.48
2018-01-22T14:42:20.257Z,12.48
2018-01-22T14:44:47.286Z,11.68
2018-01-22T14:47:13.494Z,11.90
2018-01-22T14:49:40.459Z,11.73
2018-01-22T14:52:07.471Z,8.23
2018-01-22T14:54:35.282Z,12.05
2018-01-22T14:57:02.101Z,9.38
2018-01-22T14:59:28.834Z,8.07
2018-01-22T15:01:55.414Z,10.68
2018-01-22T15:04:22.609Z,11.05
2018-01-22T15:06:49.698Z,10.63
2018-01-22T15:09:15.978Z,20.85
2018-01-22T15:11:43.038Z,14.05
2018-01-22T15:14:10.914Z,15.60
2018-01-22T15:16:37.261Z,9.77
2018-01-22T15:19:03.704Z,11.07
2018-01-22T15:21:29.973Z,12.65
2018-01-22T15:33:42.090Z,11.25
2018-01-22T15:36:08.491Z,8.85
2018-01-22T15:38:35.430Z,7.68
2018-01-22T15:41:02.572Z,11.57
2018-01-22T15:43:30.255Z,8.98
2018-01-22T15:45:57.115Z,10.05
2018-01-22T15:48:23.327Z,9.07
2018-01-22T15:50:49.560Z,8.10
2018-01-22T15:53:16.101Z,12.65
2018-01-22T15:55:43.210Z,9.65
2018-01-22T15:58:09.597Z,11.50
2018-01-22T16:00:38.842Z,16.42
2018-01-22T16:03:05.843Z,14.60
2018-01-22T16:05:32.252Z,11.00
2018-01-22T16:07:58.492Z,12.50
2018-01-22T16:10:24.722Z,15.75
2018-01-22T16:12:51.577Z,14.05
2018-01-22T16:15:18.288Z,13.05
2018-01-22T16:17:45.535Z,12.13
2018-01-22T16:20:12.141Z,12.57
2018-01-22T16:22:39.923Z,13.20
2018-01-22T16:25:08.412Z,10.50
2018-01-22T16:27:35.050Z,10.75
2018-01-22T16:30:01.513Z,8.43
2018-01-22T16:32:27.770Z,8.90
2018-01-22T16:34:55.254Z,9.45
2018-01-22T16:37:22.095Z,9.18
2018-01-22T16:39:49.100Z,11.23
2018-01-22T16:42:15.757Z,9.23
2018-01-22T16:44:43.022Z,10.35
2018-01-22T16:47:16.578Z,10.80
2018-01-22T16:49:42.884Z,12.40
2018-01-22T16:52:09.103Z,10.80
2018-01-22T16:54:35.375Z,11.73
2018-01-22T16:57:01.594Z,12.20
2018-01-22T16:59:27.952Z,10.38
2018-01-22T17:01:54.302Z,13.40
2018-01-22T17:04:21.327Z,12.30
2018-01-22T17:06:48.093Z,10.45
2018-01-22T17:09:15.135Z,13.88
2018-01-22T17:11:42.551Z,17.98
2018-01-22T17:14:09.778Z,14.55
2018-01-22T17:16:36.735Z,15.13
2018-01-22T17:19:03.608Z,11.90
2018-01-22T17:21:29.969Z,17.60
2018-01-22T17:23:56.924Z,15.35
2018-01-22T17:26:24.107Z,14.75
2018-01-22T17:28:50.815Z,16.23
2018-01-22T17:31:18.017Z,19.10
2018-01-22T17:33:44.268Z,13.95
2018-01-22T17:36:11.304Z,17.08
2018-01-22T17:38:38.343Z,17.42
2018-01-22T17:41:04.628Z,17.80
2018-01-22T17:43:30.885Z,19.58
2018-01-22T17:45:57.206Z,18.65
2018-01-22T17:48:23.404Z,20.75
2018-01-22T17:50:49.648Z,29.42
2018-01-22T17:53:16.532Z,17.45
2018-01-22T17:55:43.732Z,121.43
2018-01-22T17:58:09.982Z,35.00
2018-01-22T18:00:36.722Z,22.17
2018-01-22T18:03:03.306Z,23.90
2018-01-22T18:05:30.881Z,31.30
2018-01-22T18:07:58.623Z,27.15
2018-01-22T18:10:24.858Z,27.23
2018-01-22T18:12:53.355Z,21.50
2018-01-22T18:15:20.529Z,22.48
2018-01-22T18:17:47.253Z,24.20
2018-01-22T18:20:13.724Z,24.92
2018-01-22T18:22:40.794Z,22.50
2018-01-22T18:25:07.575Z,20.35
2018-01-22T18:27:34.622Z,19.55
2018-01-22T18:30:01.476Z,23.45
2018-01-22T18:32:28.272Z,22.98
2018-01-22T18:34:54.743Z,22.75
2018-01-22T18:37:21.901Z,24.65
2018-01-22T18:39:48.762Z,26.50
2018-01-22T18:42:15.871Z,18.37
2018-01-22T18:44:43.429Z,17.92
2018-01-22T18:47:10.195Z,20.10
2018-01-22T18:49:36.830Z,19.90
2018-01-22T18:52:03.863Z,17.25
2018-01-22T18:54:30.620Z,23.10
2018-01-22T18:56:56.858Z,27.02
2018-01-22T18:59:23.050Z,23.15
2018-01-22T19:01:50.259Z,21.35
2018-01-22T19:04:17.013Z,21.83
2018-01-22T19:06:43.375Z,26.08
2018-01-22T19:09:10.672Z,23.40
2018-01-22T19:11:37.322Z,22.40
2018-01-22T19:14:03.617Z,24.75
2018-01-22T19:16:29.909Z,22.10
2018-01-22T19:18:56.878Z,20.90
2018-01-22T19:21:23.379Z,25.45
2018-01-22T19:23:50.363Z,24.87
2018-01-22T19:26:16.679Z,20.10
2018-01-22T19:28:42.946Z,21.60
2018-01-22T19:31:09.267Z,20.98
2018-01-22T19:33:36.242Z,24.35
2018-01-22T19:36:03.463Z,17.50
2018-01-22T19:38:30.808Z,24.95
2018-01-22T19:40:57.031Z,21.00
2018-01-22T19:43:23.366Z,19.95
2018-01-22T19:45:51.152Z,18.70
2018-01-22T19:48:18.123Z,26.12
2018-01-22T19:50:44.336Z,26.42
2018-01-22T19:53:11.603Z,26.50
2018-01-22T19:55:38.269Z,25.83
2018-01-22T19:58:05.335Z,31.67
2018-01-22T20:00:38.349Z,22.33
2018-01-22T20:03:04.691Z,25.37
2018-01-22T20:05:30.931Z,19.17
2018-01-22T20:07:57.444Z,23.92
2018-01-22T20:10:24.562Z,22.67
2018-01-22T20:12:51.108Z,20.75
2018-01-22T20:15:18.508Z,20.83
2018-01-22T20:17:46.546Z,22.33
2018-01-22T20:20:13.419Z,30.37
2018-01-22T20:22:40.218Z,24.75
2018-01-22T20:25:06.540Z,20.00
2018-01-22T20:27:32.825Z,28.98
2018-01-22T20:29:59.046Z,24.27
2018-01-22T20:32:25.336Z,22.92
2018-01-22T20:34:51.574Z,17.90
2018-01-22T20:37:17.813Z,24.92
2018-01-22T20:39:45.076Z,22.87
2018-01-22T20:42:12.366Z,20.90
2018-01-22T20:44:38.630Z,23.87
2018-01-22T20:47:07.004Z,27.17
2018-01-22T20:49:34.055Z,28.33
2018-01-22T20:52:00.259Z,25.88
2018-01-22T20:54:27.036Z,25.30
2018-01-22T20:56:53.846Z,30.92
2018-01-22T20:59:21.218Z,27.70
2018-01-22T21:01:48.196Z,32.80
2018-01-22T21:04:14.518Z,28.77
2018-01-22T21:06:40.761Z,28.83
2018-01-22T21:09:07.096Z,32.17
2018-01-22T21:11:34.089Z,34.15
2018-01-22T21:14:01.122Z,35.97
2018-01-22T21:16:27.843Z,34.35
2018-01-22T21:18:54.806Z,29.02
2018-01-22T21:21:22.065Z,27.75
2018-01-22T21:23:48.851Z,34.53
2018-01-22T21:26:15.697Z,33.28
2018-01-22T21:28:42.258Z,34.67
2018-01-22T21:31:09.585Z,43.10
2018-01-22T21:33:36.772Z,34.85
2018-01-22T21:36:03.346Z,40.58
2018-01-22T21:38:30.107Z,35.83
2018-01-22T21:40:56.629Z,35.92
2018-01-22T21:43:24.213Z,39.70
2018-01-22T21:46:01.533Z,35.33
2018-01-22T21:48:28.646Z,27.60
2018-01-22T21:50:57.216Z,32.85
2018-01-22T21:53:23.459Z,46.45
2018-01-22T21:55:49.682Z,33.75
2018-01-22T21:58:15.930Z,38.97
2018-01-22T22:00:43.056Z,34.97
2018-01-22T22:03:09.401Z,33.83
2018-01-22T22:05:35.732Z,30.67
2018-01-22T22:08:02.717Z,31.50
2018-01-22T22:10:30.599Z,31.30
2018-01-22T22:12:56.842Z,28.98
2018-01-22T22:15:23.140Z,36.58
2018-01-22T22:17:50.379Z,31.48
2018-01-22T22:20:16.736Z,37.97
2018-01-22T22:22:43.997Z,35.92
2018-01-22T22:25:10.522Z,29.55
2018-01-22T22:27:38.795Z,43.40
2018-01-22T22:30:05.101Z,35.70
2018-01-22T22:32:32.455Z,41.75
2018-01-22T22:34:58.696Z,37.42
2018-01-22T22:37:25.887Z,37.58
2018-01-22T22:39:52.095Z,38.90
2018-01-22T22:42:18.298Z,40.00
2018-01-22T22:44:44.530Z,41.85
2018-01-22T22:47:10.749Z,42.58
2018-01-22T22:49:36.977Z,41.50
2018-01-22T22:52:03.167Z,43.17
2018-01-22T22:54:29.401Z,37.20
2018-01-22T22:56:56.548Z,46.33
2018-01-22T22:59:23.259Z,51.03
2018-01-22T23:01:49.478Z,50.30
2018-01-22T23:04:17.504Z,51.58
2018-01-22T23:06:44.617Z,56.60
2018-01-22T23:09:11.358Z,53.08
2018-01-22T23:11:37.608Z,60.55
2018-01-22T23:14:05.468Z,50.12
2018-01-22T23:16:32.978Z,62.50
2018-01-22T23:18:59.501Z,60.85
2018-01-22T23:21:26.953Z,46.53
2018-01-22T23:23:53.735Z,60.70
2018-01-22T23:26:19.962Z,52.17
2018-01-22T23:28:46.158Z,65.87
2018-01-22T23:31:12.891Z,57.83
2018-01-22T23:33:39.099Z,46.80
2018-01-22T23:36:05.450Z,47.85
2018-01-22T23:38:32.689Z,53.90
2018-01-22T23:40:59.853Z,52.90
2018-01-22T23:43:26.066Z,51.08
2018-01-22T23:45:52.629Z,51.83
2018-01-22T23:48:19.932Z,54.92
2018-01-22T23:50:46.718Z,46.50
2018-01-22T23:53:13.339Z,58.05
2018-01-22T23:55:40.385Z,57.35
2018-01-22T23:58:07.246Z,59.28
